sensor_id;sensor_type;location;lat;lon;timestamp;pressure;altitude;pressure_sealevel;temperature;humidity
3102;BME280;1561;42.666;23.392;2023-07-09T00:02:28;95534.72;;;19.57;100.00
3102;BME280;1561;42.666;23.392;2023-07-09T00:04:56;95596.81;;;20.03;100.00
3102;BME280;1561;42.666;23.392;2023-07-09T00:07:38;95592.09;;;20.07;100.00
3102;BME280;1561;42.666;23.392;2023-07-09T00:10:14;95563.53;;;19.92;100.00
3102;BME280;1561;42.666;23.392;2023-07-09T00:12:41;95488.91;;;19.49;100.00
3102;BME280;1561;42.666;23.392;2023-07-09T00:15:14;95565.59;;;19.97;100.00
3102;BME280;1561;42.666;23.392;2023-07-09T00:17:45;95584.44;;;19.91;100.00
3102;BME280;1561;42.666;23.392;2023-07-09T00:20:16;95582.81;;;19.90;100.00
3102;BME280;1561;42.666;23.392;2023-07-09T00:22:48;95584.75;;;19.88;100.00
3102;BME280;1561;42.666;23.392;2023-07-09T00:25:19;95571.06;;;19.79;100.00
3102;BME280;1561;42.666;23.392;2023-07-09T00:27:47;95569.72;;;19.83;100.00
3102;BME280;1561;42.666;23.392;2023-07-09T00:30:19;95579.19;;;19.99;100.00
3102;BME280;1561;42.666;23.392;2023-07-09T00:32:49;95583.56;;;19.98;100.00
3102;BME280;1561;42.666;23.392;2023-07-09T00:35:17;95570.44;;;20.00;100.00
3102;BME280;1561;42.666;23.392;2023-07-09T00:37:45;95572.38;;;19.98;100.00
3102;BME280;1561;42.666;23.392;2023-07-09T00:40:18;95580.53;;;19.95;100.00
3102;BME280;1561;42.666;23.392;2023-07-09T00:42:49;95581.19;;;19.89;100.00
3102;BME280;1561;42.666;23.392;2023-07-09T00:45:22;95568.75;;;19.84;100.00
3102;BME280;1561;42.666;23.392;2023-07-09T00:47:55;95557.03;;;19.66;100.00
3102;BME280;1561;42.666;23.392;2023-07-09T00:50:35;95557.88;;;19.81;100.00
3102;BME280;1561;42.666;23.392;2023-07-09T00:53:10;95572.94;;;19.85;100.00
3102;BME280;1561;42.666;23.392;2023-07-09T00:55:48;95576.69;;;19.83;100.00
3102;BME280;1561;42.666;23.392;2023-07-09T00:58:20;95558.75;;;19.73;100.00
3102;BME280;1561;42.666;23.392;2023-07-09T01:00:56;95556.31;;;19.72;100.00
3102;BME280;1561;42.666;23.392;2023-07-09T01:03:34;95574.28;;;19.81;100.00
3102;BME280;1561;42.666;23.392;2023-07-09T01:06:09;95573.53;;;19.73;100.00
3102;BME280;1561;42.666;23.392;2023-07-09T01:08:39;95563.81;;;19.67;100.00
3102;BME280;1561;42.666;23.392;2023-07-09T01:11:17;95574.88;;;19.61;100.00
3102;BME280;1561;42.666;23.392;2023-07-09T01:13:46;95578.09;;;19.63;100.00
3102;BME280;1561;42.666;23.392;2023-07-09T01:16:16;95574.91;;;19.53;100.00
3102;BME280;1561;42.666;23.392;2023-07-09T01:18:44;95587.63;;;19.32;100.00
3102;BME280;1561;42.666;23.392;2023-07-09T01:21:17;95574.41;;;19.11;100.00
3102;BME280;1561;42.666;23.392;2023-07-09T01:23:47;95574.22;;;19.12;100.00
3102;BME280;1561;42.666;23.392;2023-07-09T01:26:16;95552.59;;;18.81;100.00
3102;BME280;1561;42.666;23.392;2023-07-09T01:28:52;95566.22;;;18.83;100.00
3102;BME280;1561;42.666;23.392;2023-07-09T01:31:22;95567.03;;;18.76;100.00
3102;BME280;1561;42.666;23.392;2023-07-09T01:33:52;95564.47;;;18.52;100.00
3102;BME280;1561;42.666;23.392;2023-07-09T01:36:22;95571.75;;;18.24;100.00
3102;BME280;1561;42.666;23.392;2023-07-09T01:39:03;95446.56;;;17.29;100.00
3102;BME280;1561;42.666;23.392;2023-07-09T01:41:31;95581.31;;;17.66;100.00
3102;BME280;1561;42.666;23.392;2023-07-09T01:44:07;95580.97;;;17.20;100.00
3102;BME280;1561;42.666;23.392;2023-07-09T01:46:36;95586.16;;;16.94;100.00
3102;BME280;1561;42.666;23.392;2023-07-09T01:49:07;95599.63;;;16.80;100.00
3102;BME280;1561;42.666;23.392;2023-07-09T01:51:36;95569.03;;;16.60;100.00
3102;BME280;1561;42.666;23.392;2023-07-09T01:54:09;95604.69;;;16.64;100.00
3102;BME280;1561;42.666;23.392;2023-07-09T01:56:46;95602.41;;;16.61;100.00
3102;BME280;1561;42.666;23.392;2023-07-09T01:59:16;95600.84;;;16.68;100.00
3102;BME280;1561;42.666;23.392;2023-07-09T02:01:47;95517.22;;;16.10;100.00
3102;BME280;1561;42.666;23.392;2023-07-09T02:04:15;95596.22;;;16.80;100.00
3102;BME280;1561;42.666;23.392;2023-07-09T02:06:50;95603.69;;;16.83;100.00
3102;BME280;1561;42.666;23.392;2023-07-09T02:09:24;95602.22;;;16.80;100.00
3102;BME280;1561;42.666;23.392;2023-07-09T02:11:58;95601.88;;;16.58;100.00
3102;BME280;1561;42.666;23.392;2023-07-09T02:14:28;95559.72;;;16.41;100.00
3102;BME280;1561;42.666;23.392;2023-07-09T02:16:55;95605.69;;;16.46;100.00
3102;BME280;1561;42.666;23.392;2023-07-09T02:19:25;95605.00;;;16.43;100.00
3102;BME280;1561;42.666;23.392;2023-07-09T02:21:54;95596.53;;;16.33;100.00
3102;BME280;1561;42.666;23.392;2023-07-09T02:24:22;95602.47;;;16.34;100.00
3102;BME280;1561;42.666;23.392;2023-07-09T02:26:51;95610.97;;;16.26;100.00
3102;BME280;1561;42.666;23.392;2023-07-09T02:29:20;95610.88;;;16.18;100.00
3102;BME280;1561;42.666;23.392;2023-07-09T02:31:48;95559.72;;;15.71;100.00
3102;BME280;1561;42.666;23.392;2023-07-09T02:34:17;95608.91;;;15.95;100.00
3102;BME280;1561;42.666;23.392;2023-07-09T02:36:45;95624.34;;;15.77;100.00
3102;BME280;1561;42.666;23.392;2023-07-09T02:39:16;95626.25;;;15.75;100.00
3102;BME280;1561;42.666;23.392;2023-07-09T02:41:46;95623.22;;;15.80;100.00
3102;BME280;1561;42.666;23.392;2023-07-09T02:44:15;95625.38;;;15.84;100.00
3102;BME280;1561;42.666;23.392;2023-07-09T02:46:44;95626.91;;;15.77;100.00
3102;BME280;1561;42.666;23.392;2023-07-09T02:49:15;95625.72;;;15.72;100.00
3102;BME280;1561;42.666;23.392;2023-07-09T02:51:42;95590.94;;;15.68;100.00
3102;BME280;1561;42.666;23.392;2023-07-09T02:54:18;95633.03;;;15.94;100.00
3102;BME280;1561;42.666;23.392;2023-07-09T02:56:46;95635.84;;;16.00;100.00
3102;BME280;1561;42.666;23.392;2023-07-09T02:59:15;95627.81;;;16.03;100.00
3102;BME280;1561;42.666;23.392;2023-07-09T03:01:46;95628.72;;;15.94;100.00
3102;BME280;1561;42.666;23.392;2023-07-09T03:04:21;95632.38;;;15.92;100.00
3102;BME280;1561;42.666;23.392;2023-07-09T03:06:49;95646.88;;;15.93;100.00
3102;BME280;1561;42.666;23.392;2023-07-09T03:09:22;95651.84;;;16.04;100.00
3102;BME280;1561;42.666;23.392;2023-07-09T03:11:50;95639.84;;;16.12;100.00
3102;BME280;1561;42.666;23.392;2023-07-09T03:14:17;95647.47;;;16.04;100.00
3102;BME280;1561;42.666;23.392;2023-07-09T03:16:45;95642.13;;;16.15;100.00
3102;BME280;1561;42.666;23.392;2023-07-09T03:19:14;95653.03;;;16.27;100.00
3102;BME280;1561;42.666;23.392;2023-07-09T03:21:42;95649.50;;;16.10;100.00
3102;BME280;1561;42.666;23.392;2023-07-09T03:24:10;95649.72;;;16.17;100.00
3102;BME280;1561;42.666;23.392;2023-07-09T03:26:43;95654.41;;;16.21;100.00
3102;BME280;1561;42.666;23.392;2023-07-09T03:29:13;95647.78;;;16.72;100.00
3102;BME280;1561;42.666;23.392;2023-07-09T03:31:43;95633.66;;;17.09;100.00
3102;BME280;1561;42.666;23.392;2023-07-09T03:34:10;95646.94;;;17.40;100.00
3102;BME280;1561;42.666;23.392;2023-07-09T03:36:41;95645.72;;;18.01;100.00
3102;BME280;1561;42.666;23.392;2023-07-09T03:39:08;95644.53;;;18.61;100.00
3102;BME280;1561;42.666;23.392;2023-07-09T03:41:38;95639.41;;;19.48;100.00
3102;BME280;1561;42.666;23.392;2023-07-09T03:44:06;95620.34;;;19.17;100.00
3102;BME280;1561;42.666;23.392;2023-07-09T03:46:33;95576.03;;;19.58;100.00
3102;BME280;1561;42.666;23.392;2023-07-09T03:49:03;95641.31;;;19.54;100.00
3102;BME280;1561;42.666;23.392;2023-07-09T03:51:32;95640.69;;;20.43;100.00
3102;BME280;1561;42.666;23.392;2023-07-09T03:54:00;95647.78;;;19.58;100.00
3102;BME280;1561;42.666;23.392;2023-07-09T03:56:28;95641.94;;;19.94;100.00
3102;BME280;1561;42.666;23.392;2023-07-09T03:58:58;95634.63;;;20.51;100.00
3102;BME280;1561;42.666;23.392;2023-07-09T04:01:29;95653.19;;;21.22;100.00
3102;BME280;1561;42.666;23.392;2023-07-09T04:03:59;95645.97;;;21.32;100.00
3102;BME280;1561;42.666;23.392;2023-07-09T04:06:27;95645.31;;;21.44;100.00
3102;BME280;1561;42.666;23.392;2023-07-09T04:08:54;95650.22;;;21.10;100.00
3102;BME280;1561;42.666;23.392;2023-07-09T04:11:22;95660.19;;;21.21;100.00
3102;BME280;1561;42.666;23.392;2023-07-09T04:13:53;95654.22;;;21.50;100.00
3102;BME280;1561;42.666;23.392;2023-07-09T04:16:23;95650.25;;;21.39;100.00
3102;BME280;1561;42.666;23.392;2023-07-09T04:18:55;95661.00;;;21.94;100.00
3102;BME280;1561;42.666;23.392;2023-07-09T04:21:22;95665.78;;;21.91;100.00
3102;BME280;1561;42.666;23.392;2023-07-09T04:23:49;95669.63;;;21.37;100.00
3102;BME280;1561;42.666;23.392;2023-07-09T04:26:17;95657.63;;;21.94;100.00
3102;BME280;1561;42.666;23.392;2023-07-09T04:28:49;95663.00;;;21.92;100.00
3102;BME280;1561;42.666;23.392;2023-07-09T04:31:16;95668.56;;;21.60;100.00
3102;BME280;1561;42.666;23.392;2023-07-09T04:33:44;95673.06;;;20.55;100.00
3102;BME280;1561;42.666;23.392;2023-07-09T04:36:16;95677.97;;;21.47;100.00
3102;BME280;1561;42.666;23.392;2023-07-09T04:38:44;95675.56;;;22.24;100.00
3102;BME280;1561;42.666;23.392;2023-07-09T04:41:13;95679.44;;;22.28;100.00
3102;BME280;1561;42.666;23.392;2023-07-09T04:43:41;95683.41;;;22.10;100.00
3102;BME280;1561;42.666;23.392;2023-07-09T04:46:10;95678.06;;;22.47;100.00
3102;BME280;1561;42.666;23.392;2023-07-09T04:48:38;95601.09;;;22.23;100.00
3102;BME280;1561;42.666;23.392;2023-07-09T04:51:06;95665.84;;;23.72;100.00
3102;BME280;1561;42.666;23.392;2023-07-09T04:53:36;95665.81;;;23.10;100.00
3102;BME280;1561;42.666;23.392;2023-07-09T04:56:06;95671.91;;;23.45;100.00
3102;BME280;1561;42.666;23.392;2023-07-09T04:58:35;95670.97;;;24.53;94.60
3102;BME280;1561;42.666;23.392;2023-07-09T05:01:03;95667.69;;;24.98;89.75
3102;BME280;1561;42.666;23.392;2023-07-09T05:03:32;95670.25;;;25.57;88.07
3102;BME280;1561;42.666;23.392;2023-07-09T05:06:00;95672.78;;;26.02;81.71
3102;BME280;1561;42.666;23.392;2023-07-09T05:08:29;95675.50;;;25.44;87.39
3102;BME280;1561;42.666;23.392;2023-07-09T05:11:10;95675.72;;;25.16;88.97
3102;BME280;1561;42.666;23.392;2023-07-09T05:13:38;95677.22;;;24.52;95.33
3102;BME280;1561;42.666;23.392;2023-07-09T05:16:09;95676.72;;;24.83;88.88
3102;BME280;1561;42.666;23.392;2023-07-09T05:18:42;95679.53;;;25.07;88.74
3102;BME280;1561;42.666;23.392;2023-07-09T05:21:11;95644.00;;;25.89;82.81
3102;BME280;1561;42.666;23.392;2023-07-09T05:23:37;95684.78;;;25.01;90.01
3102;BME280;1561;42.666;23.392;2023-07-09T05:26:15;95687.38;;;25.07;86.55
3102;BME280;1561;42.666;23.392;2023-07-09T05:28:43;95686.38;;;25.08;93.07
3102;BME280;1561;42.666;23.392;2023-07-09T05:31:14;95676.75;;;26.62;82.13
3102;BME280;1561;42.666;23.392;2023-07-09T05:33:44;95673.22;;;26.37;79.47
3102;BME280;1561;42.666;23.392;2023-07-09T05:36:14;95601.88;;;25.27;83.72
3102;BME280;1561;42.666;23.392;2023-07-09T05:38:41;95589.47;;;27.10;72.23
3102;BME280;1561;42.666;23.392;2023-07-09T05:41:10;95663.91;;;28.30;66.77
3102;BME280;1561;42.666;23.392;2023-07-09T05:43:45;95667.34;;;27.10;66.15
3102;BME280;1561;42.666;23.392;2023-07-09T05:46:13;95672.25;;;28.27;64.58
3102;BME280;1561;42.666;23.392;2023-07-09T05:48:43;95669.13;;;26.47;68.52
3102;BME280;1561;42.666;23.392;2023-07-09T05:51:15;95669.34;;;26.52;69.84
3102;BME280;1561;42.666;23.392;2023-07-09T05:53:49;95675.81;;;25.99;76.21
3102;BME280;1561;42.666;23.392;2023-07-09T05:56:19;95664.44;;;27.67;62.82
3102;BME280;1561;42.666;23.392;2023-07-09T05:58:49;95662.47;;;27.38;63.12
3102;BME280;1561;42.666;23.392;2023-07-09T06:01:18;95657.41;;;27.12;65.01
3102;BME280;1561;42.666;23.392;2023-07-09T06:03:46;95670.34;;;27.38;65.95
3102;BME280;1561;42.666;23.392;2023-07-09T06:06:13;95651.13;;;28.52;58.58
3102;BME280;1561;42.666;23.392;2023-07-09T06:08:40;95661.81;;;28.21;56.62
3102;BME280;1561;42.666;23.392;2023-07-09T06:11:07;95656.28;;;27.75;58.02
3102;BME280;1561;42.666;23.392;2023-07-09T06:13:38;95656.44;;;26.88;59.36
3102;BME280;1561;42.666;23.392;2023-07-09T06:16:06;95656.97;;;26.22;60.79
3102;BME280;1561;42.666;23.392;2023-07-09T06:18:34;95662.44;;;26.20;63.62
3102;BME280;1561;42.666;23.392;2023-07-09T06:21:02;95649.16;;;27.57;57.84
3102;BME280;1561;42.666;23.392;2023-07-09T06:23:31;95613.88;;;29.07;52.44
3102;BME280;1561;42.666;23.392;2023-07-09T06:25:58;95657.94;;;29.35;51.86
3102;BME280;1561;42.666;23.392;2023-07-09T06:28:26;95647.38;;;30.44;49.23
3102;BME280;1561;42.666;23.392;2023-07-09T06:30:56;95649.13;;;28.65;52.67
3102;BME280;1561;42.666;23.392;2023-07-09T06:33:27;95642.88;;;30.16;50.41
3102;BME280;1561;42.666;23.392;2023-07-09T06:35:57;95644.75;;;30.44;48.97
3102;BME280;1561;42.666;23.392;2023-07-09T06:38:26;95639.47;;;30.72;47.66
3102;BME280;1561;42.666;23.392;2023-07-09T06:40:53;95654.97;;;29.55;49.50
3102;BME280;1561;42.666;23.392;2023-07-09T06:43:23;95653.50;;;29.82;49.40
3102;BME280;1561;42.666;23.392;2023-07-09T06:45:58;95633.09;;;31.67;46.13
3102;BME280;1561;42.666;23.392;2023-07-09T06:48:27;95639.59;;;30.77;47.55
3102;BME280;1561;42.666;23.392;2023-07-09T06:50:59;95637.28;;;28.97;50.24
3102;BME280;1561;42.666;23.392;2023-07-09T06:53:29;95644.53;;;29.94;49.15
3102;BME280;1561;42.666;23.392;2023-07-09T06:56:01;95640.06;;;30.74;46.45
3102;BME280;1561;42.666;23.392;2023-07-09T06:58:30;95635.75;;;30.28;47.25
3102;BME280;1561;42.666;23.392;2023-07-09T07:01:03;95636.00;;;30.55;46.53
3102;BME280;1561;42.666;23.392;2023-07-09T07:03:31;95642.63;;;30.85;45.33
3102;BME280;1561;42.666;23.392;2023-07-09T07:05:59;95647.53;;;30.93;45.99
3102;BME280;1561;42.666;23.392;2023-07-09T07:08:26;95640.09;;;30.62;44.96
3102;BME280;1561;42.666;23.392;2023-07-09T07:10:57;95645.03;;;31.20;44.96
3102;BME280;1561;42.666;23.392;2023-07-09T07:13:27;95635.22;;;30.99;44.62
3102;BME280;1561;42.666;23.392;2023-07-09T07:15:57;95637.06;;;32.50;42.72
3102;BME280;1561;42.666;23.392;2023-07-09T07:18:25;95636.75;;;32.04;41.31
3102;BME280;1561;42.666;23.392;2023-07-09T07:20:56;95632.31;;;33.05;40.47
3102;BME280;1561;42.666;23.392;2023-07-09T07:23:23;95628.94;;;31.92;41.97
3102;BME280;1561;42.666;23.392;2023-07-09T07:25:51;95623.84;;;31.15;42.53
3102;BME280;1561;42.666;23.392;2023-07-09T07:28:18;95627.75;;;30.79;43.72
3102;BME280;1561;42.666;23.392;2023-07-09T07:30:46;95632.81;;;31.85;42.23
3102;BME280;1561;42.666;23.392;2023-07-09T07:33:14;95625.13;;;31.45;42.80
3102;BME280;1561;42.666;23.392;2023-07-09T07:35:42;95615.84;;;31.10;43.38
3102;BME280;1561;42.666;23.392;2023-07-09T07:38:09;95618.81;;;32.49;42.29
3102;BME280;1561;42.666;23.392;2023-07-09T07:40:36;95546.78;;;29.96;44.00
3102;BME280;1561;42.666;23.392;2023-07-09T07:43:03;95614.28;;;31.63;41.17
3102;BME280;1561;42.666;23.392;2023-07-09T07:45:31;95546.13;;;31.44;40.93
3102;BME280;1561;42.666;23.392;2023-07-09T07:48:00;95614.69;;;31.55;41.15
3102;BME280;1561;42.666;23.392;2023-07-09T07:50:41;95618.56;;;31.86;41.48
3102;BME280;1561;42.666;23.392;2023-07-09T07:53:13;95619.34;;;30.82;41.78
3102;BME280;1561;42.666;23.392;2023-07-09T07:55:41;95620.75;;;31.72;41.72
3102;BME280;1561;42.666;23.392;2023-07-09T07:58:13;95626.72;;;30.52;41.88
3102;BME280;1561;42.666;23.392;2023-07-09T08:00:40;95614.63;;;31.88;41.09
3102;BME280;1561;42.666;23.392;2023-07-09T08:03:07;95611.81;;;33.27;38.31
3102;BME280;1561;42.666;23.392;2023-07-09T08:05:35;95613.50;;;30.80;42.36
3102;BME280;1561;42.666;23.392;2023-07-09T08:08:04;95609.69;;;30.88;41.78
3102;BME280;1561;42.666;23.392;2023-07-09T08:10:32;95611.34;;;33.30;38.97
3102;BME280;1561;42.666;23.392;2023-07-09T08:12:59;95610.47;;;31.54;41.28
3102;BME280;1561;42.666;23.392;2023-07-09T08:15:28;95601.44;;;31.50;40.21
3102;BME280;1561;42.666;23.392;2023-07-09T08:17:54;95593.41;;;33.89;37.91
3102;BME280;1561;42.666;23.392;2023-07-09T08:20:21;95556.88;;;34.11;36.50
3102;BME280;1561;42.666;23.392;2023-07-09T08:22:50;95599.34;;;32.33;38.85
3102;BME280;1561;42.666;23.392;2023-07-09T08:25:19;95610.31;;;32.47;39.27
3102;BME280;1561;42.666;23.392;2023-07-09T08:27:48;95595.69;;;33.29;37.90
3102;BME280;1561;42.666;23.392;2023-07-09T08:30:15;95589.81;;;34.25;36.39
3102;BME280;1561;42.666;23.392;2023-07-09T08:32:42;95594.44;;;33.05;37.91
3102;BME280;1561;42.666;23.392;2023-07-09T08:35:09;95600.69;;;31.93;39.77
3102;BME280;1561;42.666;23.392;2023-07-09T08:37:37;95592.06;;;33.86;37.59
3102;BME280;1561;42.666;23.392;2023-07-09T08:40:12;95589.53;;;32.87;38.60
3102;BME280;1561;42.666;23.392;2023-07-09T08:42:43;95582.00;;;33.88;37.12
3102;BME280;1561;42.666;23.392;2023-07-09T08:45:26;95591.03;;;34.79;36.36
3102;BME280;1561;42.666;23.392;2023-07-09T08:48:02;95581.31;;;34.18;37.32
3102;BME280;1561;42.666;23.392;2023-07-09T08:50:35;95586.19;;;33.79;37.10
3102;BME280;1561;42.666;23.392;2023-07-09T08:53:04;95597.47;;;33.23;38.83
3102;BME280;1561;42.666;23.392;2023-07-09T08:55:32;95574.84;;;33.06;38.85
3102;BME280;1561;42.666;23.392;2023-07-09T08:58:11;95589.03;;;33.26;39.12
3102;BME280;1561;42.666;23.392;2023-07-09T09:00:47;95595.19;;;31.78;41.20
3102;BME280;1561;42.666;23.392;2023-07-09T09:03:28;95601.81;;;32.45;41.38
3102;BME280;1561;42.666;23.392;2023-07-09T09:05:59;95593.84;;;33.76;37.73
3102;BME280;1561;42.666;23.392;2023-07-09T09:08:36;95513.69;;;33.54;38.51
3102;BME280;1561;42.666;23.392;2023-07-09T09:11:12;95588.09;;;33.94;37.71
3102;BME280;1561;42.666;23.392;2023-07-09T09:13:41;95586.84;;;33.13;39.71
3102;BME280;1561;42.666;23.392;2023-07-09T09:16:17;95594.97;;;32.75;39.67
3102;BME280;1561;42.666;23.392;2023-07-09T09:18:50;95523.66;;;32.32;40.33
3102;BME280;1561;42.666;23.392;2023-07-09T09:21:26;95595.69;;;32.39;40.49
3102;BME280;1561;42.666;23.392;2023-07-09T09:23:57;95584.09;;;33.35;39.73
3102;BME280;1561;42.666;23.392;2023-07-09T09:26:30;95582.53;;;33.90;39.30
3102;BME280;1561;42.666;23.392;2023-07-09T09:29:00;95553.94;;;33.46;39.63
3102;BME280;1561;42.666;23.392;2023-07-09T09:31:34;95586.63;;;32.35;40.86
3102;BME280;1561;42.666;23.392;2023-07-09T09:34:01;95583.69;;;32.58;40.82
3102;BME280;1561;42.666;23.392;2023-07-09T09:36:32;95580.13;;;33.84;38.93
3102;BME280;1561;42.666;23.392;2023-07-09T09:39:04;95577.22;;;33.90;39.08
3102;BME280;1561;42.666;23.392;2023-07-09T09:41:36;95568.81;;;33.52;38.69
3102;BME280;1561;42.666;23.392;2023-07-09T09:44:06;95591.50;;;33.01;38.61
3102;BME280;1561;42.666;23.392;2023-07-09T09:46:44;95568.13;;;33.76;38.71
3102;BME280;1561;42.666;23.392;2023-07-09T09:49:12;95572.66;;;35.38;36.32
3102;BME280;1561;42.666;23.392;2023-07-09T09:51:43;95570.53;;;34.69;36.03
3102;BME280;1561;42.666;23.392;2023-07-09T09:54:19;95561.00;;;35.19;36.57
3102;BME280;1561;42.666;23.392;2023-07-09T09:56:48;95565.50;;;35.38;36.14
3102;BME280;1561;42.666;23.392;2023-07-09T09:59:20;95571.00;;;33.23;38.62
3102;BME280;1561;42.666;23.392;2023-07-09T10:01:56;95558.59;;;33.29;38.75
3102;BME280;1561;42.666;23.392;2023-07-09T10:04:24;95546.22;;;33.96;38.13
3102;BME280;1561;42.666;23.392;2023-07-09T10:06:56;95549.56;;;34.58;37.51
3102;BME280;1561;42.666;23.392;2023-07-09T10:09:30;95559.88;;;35.65;35.57
3102;BME280;1561;42.666;23.392;2023-07-09T10:12:07;95556.03;;;33.39;37.79
3102;BME280;1561;42.666;23.392;2023-07-09T10:14:45;95565.13;;;32.27;38.93
3102;BME280;1561;42.666;23.392;2023-07-09T10:17:22;95562.22;;;31.80;40.83
3102;BME280;1561;42.666;23.392;2023-07-09T10:19:59;95557.88;;;31.74;39.76
3102;BME280;1561;42.666;23.392;2023-07-09T10:22:40;95553.28;;;32.87;39.25
3102;BME280;1561;42.666;23.392;2023-07-09T10:25:32;95559.13;;;32.63;39.20
3102;BME280;1561;42.666;23.392;2023-07-09T10:28:24;95540.94;;;33.96;37.79
3102;BME280;1561;42.666;23.392;2023-07-09T10:31:08;95555.19;;;32.65;38.37
3102;BME280;1561;42.666;23.392;2023-07-09T10:33:48;95554.19;;;33.39;38.10
3102;BME280;1561;42.666;23.392;2023-07-09T10:36:27;95546.53;;;34.09;35.42
3102;BME280;1561;42.666;23.392;2023-07-09T10:39:04;95547.38;;;33.17;36.70
3102;BME280;1561;42.666;23.392;2023-07-09T10:41:37;95552.22;;;32.62;37.12
3102;BME280;1561;42.666;23.392;2023-07-09T10:44:15;95492.41;;;31.00;38.96
3102;BME280;1561;42.666;23.392;2023-07-09T10:46:50;95551.06;;;32.26;38.87
3102;BME280;1561;42.666;23.392;2023-07-09T10:49:25;95541.38;;;31.46;39.31
3102;BME280;1561;42.666;23.392;2023-07-09T10:52:06;95536.09;;;32.32;38.24
3102;BME280;1561;42.666;23.392;2023-07-09T10:54:41;95543.44;;;32.03;38.56
3102;BME280;1561;42.666;23.392;2023-07-09T10:57:14;95541.72;;;32.72;37.71
3102;BME280;1561;42.666;23.392;2023-07-09T10:59:49;95529.31;;;32.77;37.35
3102;BME280;1561;42.666;23.392;2023-07-09T11:02:21;95533.28;;;32.22;37.10
3102;BME280;1561;42.666;23.392;2023-07-09T11:04:59;95530.22;;;32.30;37.07
3102;BME280;1561;42.666;23.392;2023-07-09T11:07:36;95530.75;;;30.86;39.08
3102;BME280;1561;42.666;23.392;2023-07-09T11:10:14;95536.94;;;31.89;38.28
3102;BME280;1561;42.666;23.392;2023-07-09T11:12:57;95534.72;;;31.22;38.95
3102;BME280;1561;42.666;23.392;2023-07-09T11:15:34;95538.16;;;31.22;38.91
3102;BME280;1561;42.666;23.392;2023-07-09T11:18:05;95537.13;;;30.90;38.92
3102;BME280;1561;42.666;23.392;2023-07-09T11:20:42;95540.41;;;30.81;38.89
3102;BME280;1561;42.666;23.392;2023-07-09T11:23:19;95530.97;;;31.01;39.25
3102;BME280;1561;42.666;23.392;2023-07-09T11:25:49;95537.44;;;30.61;40.00
3102;BME280;1561;42.666;23.392;2023-07-09T11:28:33;95531.91;;;30.62;39.82
3102;BME280;1561;42.666;23.392;2023-07-09T11:31:06;95536.47;;;31.16;39.16
3102;BME280;1561;42.666;23.392;2023-07-09T11:33:45;95525.13;;;30.66;39.75
3102;BME280;1561;42.666;23.392;2023-07-09T11:36:24;95523.88;;;30.85;38.86
3102;BME280;1561;42.666;23.392;2023-07-09T11:38:53;95525.06;;;30.17;40.11
3102;BME280;1561;42.666;23.392;2023-07-09T11:41:44;95521.56;;;30.00;40.52
3102;BME280;1561;42.666;23.392;2023-07-09T11:44:20;95522.81;;;30.53;40.00
3102;BME280;1561;42.666;23.392;2023-07-09T11:46:58;95511.31;;;29.59;41.89
3102;BME280;1561;42.666;23.392;2023-07-09T11:49:46;95514.13;;;29.97;42.26
3102;BME280;1561;42.666;23.392;2023-07-09T11:52:20;95515.00;;;29.86;41.99
3102;BME280;1561;42.666;23.392;2023-07-09T11:54:49;95510.03;;;29.50;41.82
3102;BME280;1561;42.666;23.392;2023-07-09T11:57:17;95515.88;;;29.40;43.27
3102;BME280;1561;42.666;23.392;2023-07-09T11:59:46;95512.22;;;30.20;41.51
3102;BME280;1561;42.666;23.392;2023-07-09T12:02:19;95509.66;;;29.97;42.39
3102;BME280;1561;42.666;23.392;2023-07-09T12:04:49;95518.72;;;29.73;44.41
3102;BME280;1561;42.666;23.392;2023-07-09T12:07:23;95515.31;;;29.61;43.56
3102;BME280;1561;42.666;23.392;2023-07-09T12:09:53;95492.66;;;29.37;42.70
3102;BME280;1561;42.666;23.392;2023-07-09T12:12:25;95510.19;;;29.83;42.28
3102;BME280;1561;42.666;23.392;2023-07-09T12:14:53;95520.25;;;29.34;44.04
3102;BME280;1561;42.666;23.392;2023-07-09T12:17:25;95518.72;;;29.73;44.35
3102;BME280;1561;42.666;23.392;2023-07-09T12:19:55;95504.25;;;29.76;43.00
3102;BME280;1561;42.666;23.392;2023-07-09T12:22:25;95514.59;;;29.54;43.59
3102;BME280;1561;42.666;23.392;2023-07-09T12:24:54;95510.34;;;29.65;43.31
3102;BME280;1561;42.666;23.392;2023-07-09T12:27:25;95495.13;;;29.95;42.97
3102;BME280;1561;42.666;23.392;2023-07-09T12:29:56;95498.56;;;30.23;42.23
3102;BME280;1561;42.666;23.392;2023-07-09T12:32:31;95468.06;;;30.44;42.31
3102;BME280;1561;42.666;23.392;2023-07-09T12:34:58;95487.84;;;30.13;42.57
3102;BME280;1561;42.666;23.392;2023-07-09T12:37:32;95498.13;;;29.87;43.76
3102;BME280;1561;42.666;23.392;2023-07-09T12:40:01;95495.63;;;30.36;44.04
3102;BME280;1561;42.666;23.392;2023-07-09T12:42:34;95495.44;;;29.98;44.41
3102;BME280;1561;42.666;23.392;2023-07-09T12:45:04;95479.75;;;29.75;44.40
3102;BME280;1561;42.666;23.392;2023-07-09T12:47:31;95476.69;;;29.67;44.37
3102;BME280;1561;42.666;23.392;2023-07-09T12:50:10;95417.66;;;29.00;44.23
3102;BME280;1561;42.666;23.392;2023-07-09T12:52:48;95474.34;;;29.42;44.59
3102;BME280;1561;42.666;23.392;2023-07-09T12:55:20;95464.25;;;30.07;43.85
3102;BME280;1561;42.666;23.392;2023-07-09T12:57:49;95479.50;;;30.49;44.22
3102;BME280;1561;42.666;23.392;2023-07-09T13:00:18;95477.72;;;30.38;43.32
3102;BME280;1561;42.666;23.392;2023-07-09T13:02:54;95475.09;;;29.94;43.72
3102;BME280;1561;42.666;23.392;2023-07-09T13:05:24;95474.25;;;29.77;44.54
3102;BME280;1561;42.666;23.392;2023-07-09T13:07:59;95471.50;;;30.00;43.82
3102;BME280;1561;42.666;23.392;2023-07-09T13:10:31;95462.34;;;29.74;44.26
3102;BME280;1561;42.666;23.392;2023-07-09T13:13:02;95476.56;;;29.73;43.97
3102;BME280;1561;42.666;23.392;2023-07-09T13:15:39;95483.75;;;29.27;45.59
3102;BME280;1561;42.666;23.392;2023-07-09T13:18:11;95475.06;;;29.26;46.14
3102;BME280;1561;42.666;23.392;2023-07-09T13:20:54;95472.22;;;29.56;45.19
3102;BME280;1561;42.666;23.392;2023-07-09T13:23:29;95480.34;;;29.54;44.94
3102;BME280;1561;42.666;23.392;2023-07-09T13:25:58;95463.56;;;29.43;45.35
3102;BME280;1561;42.666;23.392;2023-07-09T13:28:29;95476.28;;;29.75;45.85
3102;BME280;1561;42.666;23.392;2023-07-09T13:31:12;95486.38;;;29.78;45.17